sensor_id;sensor_type;location;lat;lon;timestamp;temperature;humidity
3996;DHT22;2012;49.794;9.722;2023-08-06T00:01:46;17.20;99.90
3996;DHT22;2012;49.794;9.722;2023-08-06T00:04:13;17.20;99.90
3996;DHT22;2012;49.794;9.722;2023-08-06T00:06:40;17.20;99.90
3996;DHT22;2012;49.794;9.722;2023-08-06T00:09:07;17.10;99.90
3996;DHT22;2012;49.794;9.722;2023-08-06T00:11:34;17.20;99.90
3996;DHT22;2012;49.794;9.722;2023-08-06T00:14:01;17.20;99.90
3996;DHT22;2012;49.794;9.722;2023-08-06T00:16:27;17.20;99.90
3996;DHT22;2012;49.794;9.722;2023-08-06T00:18:54;17.10;99.90
3996;DHT22;2012;49.794;9.722;2023-08-06T00:21:22;17.00;99.90
3996;DHT22;2012;49.794;9.722;2023-08-06T00:23:49;17.10;99.90
3996;DHT22;2012;49.794;9.722;2023-08-06T00:26:16;17.00;99.90
3996;DHT22;2012;49.794;9.722;2023-08-06T00:28:43;17.00;99.90
3996;DHT22;2012;49.794;9.722;2023-08-06T00:31:10;17.00;99.90
3996;DHT22;2012;49.794;9.722;2023-08-06T00:33:37;17.00;99.90
3996;DHT22;2012;49.794;9.722;2023-08-06T00:36:04;16.80;99.90
3996;DHT22;2012;49.794;9.722;2023-08-06T00:38:31;16.70;99.90
3996;DHT22;2012;49.794;9.722;2023-08-06T00:40:58;16.60;99.90
3996;DHT22;2012;49.794;9.722;2023-08-06T00:43:25;16.80;99.90
3996;DHT22;2012;49.794;9.722;2023-08-06T00:45:51;16.80;99.90
3996;DHT22;2012;49.794;9.722;2023-08-06T00:48:19;16.80;99.90
3996;DHT22;2012;49.794;9.722;2023-08-06T00:50:46;17.00;99.90
3996;DHT22;2012;49.794;9.722;2023-08-06T00:53:13;16.90;99.90
3996;DHT22;2012;49.794;9.722;2023-08-06T00:55:41;16.80;99.90
3996;DHT22;2012;49.794;9.722;2023-08-06T00:58:11;16.90;99.90
3996;DHT22;2012;49.794;9.722;2023-08-06T01:00:39;17.00;99.90
3996;DHT22;2012;49.794;9.722;2023-08-06T01:03:06;17.00;99.90
3996;DHT22;2012;49.794;9.722;2023-08-06T01:05:33;16.90;99.90
3996;DHT22;2012;49.794;9.722;2023-08-06T01:08:19;16.60;99.90
3996;DHT22;2012;49.794;9.722;2023-08-06T01:13:54;16.80;99.90
3996;DHT22;2012;49.794;9.722;2023-08-06T01:16:24;16.70;99.90
3996;DHT22;2012;49.794;9.722;2023-08-06T01:18:50;16.90;99.90
3996;DHT22;2012;49.794;9.722;2023-08-06T01:21:18;16.80;99.90
3996;DHT22;2012;49.794;9.722;2023-08-06T01:23:46;16.60;99.90
3996;DHT22;2012;49.794;9.722;2023-08-06T01:26:30;16.70;99.90
3996;DHT22;2012;49.794;9.722;2023-08-06T01:29:07;16.80;99.90
3996;DHT22;2012;49.794;9.722;2023-08-06T01:31:42;16.80;99.90
3996;DHT22;2012;49.794;9.722;2023-08-06T01:34:22;16.80;99.90
3996;DHT22;2012;49.794;9.722;2023-08-06T01:36:50;16.80;99.90
3996;DHT22;2012;49.794;9.722;2023-08-06T01:39:18;16.70;99.90
3996;DHT22;2012;49.794;9.722;2023-08-06T01:41:48;16.70;99.90
3996;DHT22;2012;49.794;9.722;2023-08-06T01:44:16;16.60;99.90
3996;DHT22;2012;49.794;9.722;2023-08-06T01:46:43;16.60;99.90
3996;DHT22;2012;49.794;9.722;2023-08-06T01:49:10;16.60;99.90
3996;DHT22;2012;49.794;9.722;2023-08-06T01:51:36;16.60;99.90
3996;DHT22;2012;49.794;9.722;2023-08-06T01:54:04;16.60;99.90
3996;DHT22;2012;49.794;9.722;2023-08-06T01:56:31;16.50;99.90
3996;DHT22;2012;49.794;9.722;2023-08-06T01:58:58;16.50;99.90
3996;DHT22;2012;49.794;9.722;2023-08-06T02:01:29;16.50;99.90
3996;DHT22;2012;49.794;9.722;2023-08-06T02:03:56;16.30;99.90
3996;DHT22;2012;49.794;9.722;2023-08-06T02:06:23;16.40;99.90
3996;DHT22;2012;49.794;9.722;2023-08-06T02:08:50;16.20;99.90
3996;DHT22;2012;49.794;9.722;2023-08-06T02:11:17;16.30;99.90
3996;DHT22;2012;49.794;9.722;2023-08-06T02:13:46;16.30;99.90
3996;DHT22;2012;49.794;9.722;2023-08-06T02:16:17;16.40;99.90
3996;DHT22;2012;49.794;9.722;2023-08-06T02:18:45;16.40;99.90
3996;DHT22;2012;49.794;9.722;2023-08-06T02:21:12;16.20;99.90
3996;DHT22;2012;49.794;9.722;2023-08-06T02:23:39;16.20;99.90
3996;DHT22;2012;49.794;9.722;2023-08-06T02:26:06;16.20;99.90
3996;DHT22;2012;49.794;9.722;2023-08-06T02:28:33;16.40;99.90
3996;DHT22;2012;49.794;9.722;2023-08-06T02:31:00;16.20;99.90
3996;DHT22;2012;49.794;9.722;2023-08-06T02:33:27;16.40;99.90
3996;DHT22;2012;49.794;9.722;2023-08-06T02:36:02;16.40;99.90
3996;DHT22;2012;49.794;9.722;2023-08-06T02:38:31;16.30;99.90
3996;DHT22;2012;49.794;9.722;2023-08-06T02:40:58;16.20;99.90
3996;DHT22;2012;49.794;9.722;2023-08-06T02:43:25;16.20;99.90
3996;DHT22;2012;49.794;9.722;2023-08-06T02:45:52;16.30;99.90
3996;DHT22;2012;49.794;9.722;2023-08-06T02:48:19;16.40;99.90
3996;DHT22;2012;49.794;9.722;2023-08-06T02:50:46;16.40;99.90
3996;DHT22;2012;49.794;9.722;2023-08-06T02:53:13;16.40;99.90
3996;DHT22;2012;49.794;9.722;2023-08-06T02:55:45;16.40;99.90
3996;DHT22;2012;49.794;9.722;2023-08-06T02:58:15;16.30;99.90
3996;DHT22;2012;49.794;9.722;2023-08-06T03:01:15;16.40;99.90
3996;DHT22;2012;49.794;9.722;2023-08-06T03:03:49;16.20;99.90
3996;DHT22;2012;49.794;9.722;2023-08-06T03:06:23;16.30;99.90
3996;DHT22;2012;49.794;9.722;2023-08-06T03:08:52;16.30;99.90
3996;DHT22;2012;49.794;9.722;2023-08-06T03:11:19;16.30;99.90
3996;DHT22;2012;49.794;9.722;2023-08-06T03:13:49;16.40;99.90
3996;DHT22;2012;49.794;9.722;2023-08-06T03:16:16;16.30;99.90
3996;DHT22;2012;49.794;9.722;2023-08-06T03:18:43;16.40;99.90
3996;DHT22;2012;49.794;9.722;2023-08-06T03:21:10;16.30;99.90
3996;DHT22;2012;49.794;9.722;2023-08-06T03:23:37;16.20;99.90
3996;DHT22;2012;49.794;9.722;2023-08-06T03:26:05;16.20;99.90
3996;DHT22;2012;49.794;9.722;2023-08-06T03:28:32;16.30;99.90
3996;DHT22;2012;49.794;9.722;2023-08-06T03:31:01;16.40;99.90
3996;DHT22;2012;49.794;9.722;2023-08-06T03:33:34;16.20;99.90
3996;DHT22;2012;49.794;9.722;2023-08-06T03:36:04;16.10;99.90
3996;DHT22;2012;49.794;9.722;2023-08-06T03:38:33;16.10;99.90
3996;DHT22;2012;49.794;9.722;2023-08-06T03:41:03;16.20;99.90
3996;DHT22;2012;49.794;9.722;2023-08-06T03:43:30;16.20;99.90
3996;DHT22;2012;49.794;9.722;2023-08-06T03:45:57;16.20;99.90
3996;DHT22;2012;49.794;9.722;2023-08-06T03:48:24;16.20;99.90
3996;DHT22;2012;49.794;9.722;2023-08-06T03:50:51;16.20;99.90
3996;DHT22;2012;49.794;9.722;2023-08-06T03:53:18;16.30;99.90
3996;DHT22;2012;49.794;9.722;2023-08-06T03:55:45;16.30;99.90
3996;DHT22;2012;49.794;9.722;2023-08-06T03:58:13;16.20;99.90
3996;DHT22;2012;49.794;9.722;2023-08-06T04:00:41;16.00;99.90
3996;DHT22;2012;49.794;9.722;2023-08-06T04:03:08;16.10;99.90
3996;DHT22;2012;49.794;9.722;2023-08-06T04:05:35;16.00;99.90
3996;DHT22;2012;49.794;9.722;2023-08-06T04:08:02;15.80;99.90
3996;DHT22;2012;49.794;9.722;2023-08-06T04:10:30;15.90;99.90
3996;DHT22;2012;49.794;9.722;2023-08-06T04:12:57;15.90;99.90
3996;DHT22;2012;49.794;9.722;2023-08-06T04:15:24;16.00;99.90
3996;DHT22;2012;49.794;9.722;2023-08-06T04:17:51;16.10;99.90
3996;DHT22;2012;49.794;9.722;2023-08-06T04:20:17;16.10;99.90
3996;DHT22;2012;49.794;9.722;2023-08-06T04:22:44;16.10;99.90
3996;DHT22;2012;49.794;9.722;2023-08-06T04:25:11;15.90;99.90
3996;DHT22;2012;49.794;9.722;2023-08-06T04:27:38;15.70;99.90
3996;DHT22;2012;49.794;9.722;2023-08-06T04:30:09;15.80;99.90
3996;DHT22;2012;49.794;9.722;2023-08-06T04:32:40;15.80;99.90
3996;DHT22;2012;49.794;9.722;2023-08-06T04:35:07;15.70;99.90
3996;DHT22;2012;49.794;9.722;2023-08-06T04:37:36;16.00;99.90
3996;DHT22;2012;49.794;9.722;2023-08-06T04:40:04;15.80;99.90
3996;DHT22;2012;49.794;9.722;2023-08-06T04:42:31;15.90;99.90
3996;DHT22;2012;49.794;9.722;2023-08-06T04:44:58;15.80;99.90
3996;DHT22;2012;49.794;9.722;2023-08-06T04:47:25;15.70;99.90
3996;DHT22;2012;49.794;9.722;2023-08-06T04:49:53;15.80;99.90
3996;DHT22;2012;49.794;9.722;2023-08-06T04:52:20;15.90;99.90
3996;DHT22;2012;49.794;9.722;2023-08-06T04:54:48;15.80;99.90
3996;DHT22;2012;49.794;9.722;2023-08-06T04:57:15;15.70;99.90
3996;DHT22;2012;49.794;9.722;2023-08-06T04:59:42;15.70;99.90
3996;DHT22;2012;49.794;9.722;2023-08-06T05:02:09;15.90;99.90
3996;DHT22;2012;49.794;9.722;2023-08-06T05:04:36;16.00;99.90
3996;DHT22;2012;49.794;9.722;2023-08-06T05:07:05;16.00;99.90
3996;DHT22;2012;49.794;9.722;2023-08-06T05:09:32;15.70;99.90
3996;DHT22;2012;49.794;9.722;2023-08-06T05:12:04;15.70;99.90
3996;DHT22;2012;49.794;9.722;2023-08-06T05:14:30;15.60;99.90
3996;DHT22;2012;49.794;9.722;2023-08-06T05:16:57;15.80;99.90
3996;DHT22;2012;49.794;9.722;2023-08-06T05:19:24;15.80;99.90
3996;DHT22;2012;49.794;9.722;2023-08-06T05:21:51;15.70;99.90
3996;DHT22;2012;49.794;9.722;2023-08-06T05:24:18;15.70;99.90
3996;DHT22;2012;49.794;9.722;2023-08-06T05:26:48;15.70;99.90
3996;DHT22;2012;49.794;9.722;2023-08-06T05:29:16;15.70;99.90
3996;DHT22;2012;49.794;9.722;2023-08-06T05:31:43;15.80;99.90
3996;DHT22;2012;49.794;9.722;2023-08-06T05:34:10;15.80;99.90
3996;DHT22;2012;49.794;9.722;2023-08-06T05:36:37;15.80;99.90
3996;DHT22;2012;49.794;9.722;2023-08-06T05:39:04;15.80;99.90
3996;DHT22;2012;49.794;9.722;2023-08-06T05:41:31;15.90;99.90
3996;DHT22;2012;49.794;9.722;2023-08-06T05:43:57;15.90;99.90
3996;DHT22;2012;49.794;9.722;2023-08-06T05:46:25;16.00;99.90
3996;DHT22;2012;49.794;9.722;2023-08-06T05:48:52;15.90;99.90
3996;DHT22;2012;49.794;9.722;2023-08-06T05:51:19;16.00;99.90
3996;DHT22;2012;49.794;9.722;2023-08-06T05:53:47;16.00;99.90
3996;DHT22;2012;49.794;9.722;2023-08-06T05:56:16;16.00;99.90
3996;DHT22;2012;49.794;9.722;2023-08-06T05:58:42;16.00;99.90
3996;DHT22;2012;49.794;9.722;2023-08-06T06:01:09;16.00;99.90
3996;DHT22;2012;49.794;9.722;2023-08-06T06:03:36;16.10;99.90
3996;DHT22;2012;49.794;9.722;2023-08-06T06:06:03;16.10;99.90
3996;DHT22;2012;49.794;9.722;2023-08-06T06:08:30;15.80;99.90
3996;DHT22;2012;49.794;9.722;2023-08-06T06:10:57;15.90;99.90
3996;DHT22;2012;49.794;9.722;2023-08-06T06:13:24;15.70;99.90
3996;DHT22;2012;49.794;9.722;2023-08-06T06:15:54;15.80;99.90
3996;DHT22;2012;49.794;9.722;2023-08-06T06:18:22;15.90;99.90
3996;DHT22;2012;49.794;9.722;2023-08-06T06:20:49;15.70;99.90
3996;DHT22;2012;49.794;9.722;2023-08-06T06:23:16;15.90;99.90
3996;DHT22;2012;49.794;9.722;2023-08-06T06:25:44;15.70;99.90
3996;DHT22;2012;49.794;9.722;2023-08-06T06:28:13;15.70;99.90
3996;DHT22;2012;49.794;9.722;2023-08-06T06:30:41;15.70;99.90
3996;DHT22;2012;49.794;9.722;2023-08-06T06:33:08;15.70;99.90
3996;DHT22;2012;49.794;9.722;2023-08-06T06:35:35;15.60;99.90
3996;DHT22;2012;49.794;9.722;2023-08-06T06:38:02;15.80;99.90
3996;DHT22;2012;49.794;9.722;2023-08-06T06:40:29;15.60;99.90
3996;DHT22;2012;49.794;9.722;2023-08-06T06:42:56;15.90;99.90
3996;DHT22;2012;49.794;9.722;2023-08-06T06:45:23;15.90;99.90
3996;DHT22;2012;49.794;9.722;2023-08-06T06:47:50;16.00;99.90
3996;DHT22;2012;49.794;9.722;2023-08-06T06:50:17;15.80;99.90
3996;DHT22;2012;49.794;9.722;2023-08-06T06:52:44;15.70;99.90
3996;DHT22;2012;49.794;9.722;2023-08-06T06:55:11;15.80;99.90
3996;DHT22;2012;49.794;9.722;2023-08-06T06:57:38;15.70;99.90
3996;DHT22;2012;49.794;9.722;2023-08-06T07:00:05;15.80;99.90
3996;DHT22;2012;49.794;9.722;2023-08-06T07:02:32;16.00;99.90
3996;DHT22;2012;49.794;9.722;2023-08-06T07:04:59;15.80;99.90
3996;DHT22;2012;49.794;9.722;2023-08-06T07:07:26;15.90;99.90
3996;DHT22;2012;49.794;9.722;2023-08-06T07:09:53;15.90;99.90
3996;DHT22;2012;49.794;9.722;2023-08-06T07:12:19;16.00;99.90
3996;DHT22;2012;49.794;9.722;2023-08-06T07:14:48;16.10;99.90
3996;DHT22;2012;49.794;9.722;2023-08-06T07:17:15;16.10;99.90
3996;DHT22;2012;49.794;9.722;2023-08-06T07:19:42;16.10;99.90
3996;DHT22;2012;49.794;9.722;2023-08-06T07:22:09;16.00;99.90
3996;DHT22;2012;49.794;9.722;2023-08-06T07:24:35;16.10;99.90
3996;DHT22;2012;49.794;9.722;2023-08-06T07:27:02;16.10;99.90
3996;DHT22;2012;49.794;9.722;2023-08-06T07:29:29;16.00;99.90
3996;DHT22;2012;49.794;9.722;2023-08-06T07:31:56;16.00;99.90
3996;DHT22;2012;49.794;9.722;2023-08-06T07:34:23;16.10;99.90
3996;DHT22;2012;49.794;9.722;2023-08-06T07:36:50;16.10;99.90
3996;DHT22;2012;49.794;9.722;2023-08-06T07:39:17;16.30;99.90
3996;DHT22;2012;49.794;9.722;2023-08-06T07:41:44;16.30;99.90
3996;DHT22;2012;49.794;9.722;2023-08-06T07:44:12;16.40;99.90
3996;DHT22;2012;49.794;9.722;2023-08-06T07:46:39;16.20;99.90
3996;DHT22;2012;49.794;9.722;2023-08-06T07:49:06;16.20;99.90
3996;DHT22;2012;49.794;9.722;2023-08-06T07:51:34;16.40;99.90
3996;DHT22;2012;49.794;9.722;2023-08-06T07:54:00;16.30;99.90
3996;DHT22;2012;49.794;9.722;2023-08-06T07:56:27;16.00;99.90
3996;DHT22;2012;49.794;9.722;2023-08-06T07:58:54;16.10;99.90
3996;DHT22;2012;49.794;9.722;2023-08-06T08:01:21;16.00;99.90
3996;DHT22;2012;49.794;9.722;2023-08-06T08:03:48;16.00;99.90
3996;DHT22;2012;49.794;9.722;2023-08-06T08:06:15;16.10;99.90
3996;DHT22;2012;49.794;9.722;2023-08-06T08:08:41;16.00;99.90
3996;DHT22;2012;49.794;9.722;2023-08-06T08:11:08;16.00;99.90
3996;DHT22;2012;49.794;9.722;2023-08-06T08:13:35;16.10;99.90
3996;DHT22;2012;49.794;9.722;2023-08-06T08:16:02;16.10;99.90
3996;DHT22;2012;49.794;9.722;2023-08-06T08:18:29;16.30;99.90
3996;DHT22;2012;49.794;9.722;2023-08-06T08:20:58;16.30;99.90
3996;DHT22;2012;49.794;9.722;2023-08-06T08:23:25;16.20;99.90
3996;DHT22;2012;49.794;9.722;2023-08-06T08:25:52;16.40;99.90
3996;DHT22;2012;49.794;9.722;2023-08-06T08:28:19;16.40;99.90
3996;DHT22;2012;49.794;9.722;2023-08-06T08:30:46;16.30;99.90
3996;DHT22;2012;49.794;9.722;2023-08-06T08:33:13;16.30;99.90
3996;DHT22;2012;49.794;9.722;2023-08-06T08:35:40;16.40;99.90
3996;DHT22;2012;49.794;9.722;2023-08-06T08:38:07;16.40;99.90
3996;DHT22;2012;49.794;9.722;2023-08-06T08:40:39;16.50;99.90
3996;DHT22;2012;49.794;9.722;2023-08-06T08:43:08;16.50;99.90
3996;DHT22;2012;49.794;9.722;2023-08-06T08:45:39;16.50;99.90
3996;DHT22;2012;49.794;9.722;2023-08-06T08:48:06;16.50;99.90
3996;DHT22;2012;49.794;9.722;2023-08-06T08:50:33;16.50;99.90
3996;DHT22;2012;49.794;9.722;2023-08-06T08:53:01;16.40;99.90
3996;DHT22;2012;49.794;9.722;2023-08-06T08:55:28;16.50;99.90
3996;DHT22;2012;49.794;9.722;2023-08-06T08:57:55;16.50;99.90
3996;DHT22;2012;49.794;9.722;2023-08-06T09:00:22;16.50;99.90
3996;DHT22;2012;49.794;9.722;2023-08-06T09:02:50;16.60;99.90
3996;DHT22;2012;49.794;9.722;2023-08-06T09:05:18;16.70;99.90
3996;DHT22;2012;49.794;9.722;2023-08-06T09:07:48;16.60;99.90
3996;DHT22;2012;49.794;9.722;2023-08-06T09:10:16;16.70;99.90
3996;DHT22;2012;49.794;9.722;2023-08-06T09:12:45;16.80;99.90
3996;DHT22;2012;49.794;9.722;2023-08-06T09:15:12;16.50;99.90
3996;DHT22;2012;49.794;9.722;2023-08-06T09:17:40;16.50;99.90
3996;DHT22;2012;49.794;9.722;2023-08-06T09:20:13;16.60;99.90
3996;DHT22;2012;49.794;9.722;2023-08-06T09:22:41;16.60;99.90
3996;DHT22;2012;49.794;9.722;2023-08-06T09:25:08;16.60;99.90
3996;DHT22;2012;49.794;9.722;2023-08-06T09:27:40;16.60;99.90
3996;DHT22;2012;49.794;9.722;2023-08-06T09:30:07;16.70;99.90
3996;DHT22;2012;49.794;9.722;2023-08-06T09:32:48;16.60;99.90
3996;DHT22;2012;49.794;9.722;2023-08-06T09:35:19;16.80;99.90
3996;DHT22;2012;49.794;9.722;2023-08-06T09:37:46;16.90;99.90
3996;DHT22;2012;49.794;9.722;2023-08-06T09:40:26;17.00;99.90
3996;DHT22;2012;49.794;9.722;2023-08-06T09:42:53;17.00;99.90
3996;DHT22;2012;49.794;9.722;2023-08-06T09:45:21;17.20;99.90
3996;DHT22;2012;49.794;9.722;2023-08-06T09:47:55;17.30;99.90
3996;DHT22;2012;49.794;9.722;2023-08-06T09:50:26;17.40;99.90
3996;DHT22;2012;49.794;9.722;2023-08-06T09:52:55;17.40;99.90
3996;DHT22;2012;49.794;9.722;2023-08-06T09:55:23;17.40;99.90
3996;DHT22;2012;49.794;9.722;2023-08-06T09:57:52;17.20;99.90
3996;DHT22;2012;49.794;9.722;2023-08-06T10:00:19;17.30;99.90
3996;DHT22;2012;49.794;9.722;2023-08-06T10:02:46;17.50;99.90
3996;DHT22;2012;49.794;9.722;2023-08-06T10:05:15;17.60;99.90
3996;DHT22;2012;49.794;9.722;2023-08-06T10:07:43;17.80;99.90
3996;DHT22;2012;49.794;9.722;2023-08-06T10:10:10;17.80;99.90
3996;DHT22;2012;49.794;9.722;2023-08-06T10:12:41;18.00;99.90
3996;DHT22;2012;49.794;9.722;2023-08-06T10:15:11;17.90;99.90
3996;DHT22;2012;49.794;9.722;2023-08-06T10:17:40;17.80;99.90
3996;DHT22;2012;49.794;9.722;2023-08-06T10:20:17;18.00;99.90
3996;DHT22;2012;49.794;9.722;2023-08-06T10:22:45;17.90;99.90
3996;DHT22;2012;49.794;9.722;2023-08-06T10:25:16;18.00;99.90
3996;DHT22;2012;49.794;9.722;2023-08-06T10:30:33;18.40;99.90
3996;DHT22;2012;49.794;9.722;2023-08-06T10:33:03;18.40;99.90
3996;DHT22;2012;49.794;9.722;2023-08-06T10:35:47;18.50;99.90
3996;DHT22;2012;49.794;9.722;2023-08-06T10:43:26;18.70;99.90
3996;DHT22;2012;49.794;9.722;2023-08-06T10:45:54;18.60;99.90
3996;DHT22;2012;49.794;9.722;2023-08-06T10:51:01;18.60;99.90
3996;DHT22;2012;49.794;9.722;2023-08-06T10:53:28;18.90;99.90
3996;DHT22;2012;49.794;9.722;2023-08-06T10:56:22;18.90;99.90
3996;DHT22;2012;49.794;9.722;2023-08-06T10:58:50;18.90;99.90
3996;DHT22;2012;49.794;9.722;2023-08-06T11:01:17;18.60;99.90
3996;DHT22;2012;49.794;9.722;2023-08-06T11:03:45;19.20;99.90
3996;DHT22;2012;49.794;9.722;2023-08-06T11:06:20;19.30;99.90
3996;DHT22;2012;49.794;9.722;2023-08-06T11:08:52;19.20;99.90
3996;DHT22;2012;49.794;9.722;2023-08-06T11:11:20;19.20;99.90
3996;DHT22;2012;49.794;9.722;2023-08-06T11:13:48;19.60;99.90
3996;DHT22;2012;49.794;9.722;2023-08-06T11:16:17;19.60;99.90
3996;DHT22;2012;49.794;9.722;2023-08-06T11:18:46;19.80;99.90
3996;DHT22;2012;49.794;9.722;2023-08-06T11:21:14;19.70;99.90
3996;DHT22;2012;49.794;9.722;2023-08-06T11:23:41;19.70;99.90
3996;DHT22;2012;49.794;9.722;2023-08-06T11:26:08;19.80;99.90
3996;DHT22;2012;49.794;9.722;2023-08-06T11:28:35;19.60;99.90
3996;DHT22;2012;49.794;9.722;2023-08-06T11:31:02;19.60;99.90
3996;DHT22;2012;49.794;9.722;2023-08-06T11:33:30;19.40;99.90
3996;DHT22;2012;49.794;9.722;2023-08-06T11:35:59;19.00;99.90
3996;DHT22;2012;49.794;9.722;2023-08-06T11:38:30;18.80;99.90
3996;DHT22;2012;49.794;9.722;2023-08-06T11:40:57;18.40;99.90
3996;DHT22;2012;49.794;9.722;2023-08-06T11:43:24;18.00;99.90
3996;DHT22;2012;49.794;9.722;2023-08-06T11:45:52;17.90;99.90
3996;DHT22;2012;49.794;9.722;2023-08-06T11:48:21;18.00;99.90
3996;DHT22;2012;49.794;9.722;2023-08-06T11:50:48;17.90;99.90
3996;DHT22;2012;49.794;9.722;2023-08-06T11:53:15;17.90;99.90
3996;DHT22;2012;49.794;9.722;2023-08-06T11:55:43;18.00;99.90
3996;DHT22;2012;49.794;9.722;2023-08-06T11:58:10;18.40;99.90
3996;DHT22;2012;49.794;9.722;2023-08-06T12:00:42;18.60;99.90
3996;DHT22;2012;49.794;9.722;2023-08-06T12:03:10;18.80;99.90
3996;DHT22;2012;49.794;9.722;2023-08-06T12:05:37;19.20;99.90
3996;DHT22;2012;49.794;9.722;2023-08-06T12:08:05;19.10;99.90
3996;DHT22;2012;49.794;9.722;2023-08-06T12:10:32;19.00;99.90
3996;DHT22;2012;49.794;9.722;2023-08-06T12:13:00;18.40;99.90
3996;DHT22;2012;49.794;9.722;2023-08-06T12:15:27;18.20;99.90
3996;DHT22;2012;49.794;9.722;2023-08-06T12:17:56;18.20;99.90
3996;DHT22;2012;49.794;9.722;2023-08-06T12:20:23;17.90;99.90
3996;DHT22;2012;49.794;9.722;2023-08-06T12:22:51;17.80;99.90
3996;DHT22;2012;49.794;9.722;2023-08-06T12:25:18;17.80;99.90
3996;DHT22;2012;49.794;9.722;2023-08-06T12:27:45;17.80;99.90
3996;DHT22;2012;49.794;9.722;2023-08-06T12:30:13;17.80;99.90
3996;DHT22;2012;49.794;9.722;2023-08-06T12:32:40;17.70;99.90
3996;DHT22;2012;49.794;9.722;2023-08-06T12:35:07;18.00;99.90
3996;DHT22;2012;49.794;9.722;2023-08-06T12:37:35;18.00;99.90
3996;DHT22;2012;49.794;9.722;2023-08-06T12:40:02;18.10;99.90
3996;DHT22;2012;49.794;9.722;2023-08-06T12:42:53;17.90;99.90
3996;DHT22;2012;49.794;9.722;2023-08-06T12:45:20;17.80;99.90
3996;DHT22;2012;49.794;9.722;2023-08-06T12:47:49;17.70;99.90
3996;DHT22;2012;49.794;9.722;2023-08-06T12:50:17;17.80;99.90
3996;DHT22;2012;49.794;9.722;2023-08-06T12:52:45;17.80;99.90
3996;DHT22;2012;49.794;9.722;2023-08-06T12:55:11;17.60;99.90
3996;DHT22;2012;49.794;9.722;2023-08-06T12:57:38;17.50;99.90
3996;DHT22;2012;49.794;9.722;2023-08-06T13:00:23;17.50;99.90
3996;DHT22;2012;49.794;9.722;2023-08-06T13:02:50;17.30;99.90
3996;DHT22;2012;49.794;9.722;2023-08-06T13:05:18;17.30;99.90
3996;DHT22;2012;49.794;9.722;2023-08-06T13:07:44;17.30;99.90
3996;DHT22;2012;49.794;9.722;2023-08-06T13:10:12;17.20;99.90
3996;DHT22;2012;49.794;9.722;2023-08-06T13:12:38;17.10;99.90
3996;DHT22;2012;49.794;9.722;2023-08-06T13:15:06;17.00;99.90
3996;DHT22;2012;49.794;9.722;2023-08-06T13:17:33;17.00;99.90
3996;DHT22;2012;49.794;9.722;2023-08-06T13:20:00;16.80;99.90
3996;DHT22;2012;49.794;9.722;2023-08-06T13:22:27;16.80;99.90
3996;DHT22;2012;49.794;9.722;2023-08-06T13:24:54;16.80;99.90
3996;DHT22;2012;49.794;9.722;2023-08-06T13:27:21;16.80;99.90
3996;DHT22;2012;49.794;9.722;2023-08-06T13:29:47;16.70;99.90
3996;DHT22;2012;49.794;9.722;2023-08-06T13:32:14;16.70;99.90
3996;DHT22;2012;49.794;9.722;2023-08-06T13:34:41;16.50;99.90
3996;DHT22;2012;49.794;9.722;2023-08-06T13:37:08;16.60;99.90
3996;DHT22;2012;49.794;9.722;2023-08-06T13:39:35;16.50;99.90
3996;DHT22;2012;49.794;9.722;2023-08-06T13:42:02;16.50;99.90
3996;DHT22;2012;49.794;9.722;2023-08-06T13:44:29;16.50;99.90
3996;DHT22;2012;49.794;9.722;2023-08-06T13:46:56;16.40;99.90
3996;DHT22;2012;49.794;9.722;2023-08-06T13:49:23;16.30;99.90
3996;DHT22;2012;49.794;9.722;2023-08-06T13:51:50;16.20;99.90
3996;DHT22;2012;49.794;9.722;2023-08-06T13:54:17;16.30;99.90
3996;DHT22;2012;49.794;9.722;2023-08-06T13:56:44;16.20;99.90
3996;DHT22;2012;49.794;9.722;2023-08-06T13:59:10;16.20;99.90
3996;DHT22;2012;49.794;9.722;2023-08-06T14:01:40;16.20;99.90
3996;DHT22;2012;49.794;9.722;2023-08-06T14:04:17;16.20;99.90
3996;DHT22;2012;49.794;9.722;2023-08-06T14:06:44;16.20;99.90
3996;DHT22;2012;49.794;9.722;2023-08-06T14:09:11;16.20;99.90
3996;DHT22;2012;49.794;9.722;2023-08-06T14:11:41;16.20;99.90
3996;DHT22;2012;49.794;9.722;2023-08-06T14:14:07;16.20;99.90
3996;DHT22;2012;49.794;9.722;2023-08-06T14:16:34;16.10;99.90
3996;DHT22;2012;49.794;9.722;2023-08-06T14:19:02;16.10;99.90
3996;DHT22;2012;49.794;9.722;2023-08-06T14:21:29;16.10;99.90
3996;DHT22;2012;49.794;9.722;2023-08-06T14:23:56;16.20;99.90
3996;DHT22;2012;49.794;9.722;2023-08-06T14:26:23;16.20;99.90
3996;DHT22;2012;49.794;9.722;2023-08-06T14:28:50;16.10;99.90
3996;DHT22;2012;49.794;9.722;2023-08-06T14:31:21;16.20;99.90
3996;DHT22;2012;49.794;9.722;2023-08-06T14:33:48;16.10;99.90
3996;DHT22;2012;49.794;9.722;2023-08-06T14:36:15;16.10;99.90
3996;DHT22;2012;49.794;9.722;2023-08-06T14:38:42;16.20;99.90
3996;DHT22;2012;49.794;9.722;2023-08-06T14:41:25;16.20;99.90
3996;DHT22;2012;49.794;9.722;2023-08-06T14:43:52;16.30;99.90
3996;DHT22;2012;49.794;9.722;2023-08-06T14:46:20;16.30;99.90
3996;DHT22;2012;49.794;9.722;2023-08-06T14:48:47;16.30;99.90
3996;DHT22;2012;49.794;9.722;2023-08-06T14:51:14;16.30;99.90
3996;DHT22;2012;49.794;9.722;2023-08-06T14:53:41;16.20;99.90
3996;DHT22;2012;49.794;9.722;2023-08-06T14:56:08;16.20;99.90
3996;DHT22;2012;49.794;9.722;2023-08-06T14:58:35;16.20;99.90
3996;DHT22;2012;49.794;9.722;2023-08-06T15:01:02;16.10;99.90
3996;DHT22;2012;49.794;9.722;2023-08-06T15:03:30;16.10;99.90
3996;DHT22;2012;49.794;9.722;2023-08-06T15:05:58;16.20;99.90
3996;DHT22;2012;49.794;9.722;2023-08-06T15:08:25;16.20;99.90
3996;DHT22;2012;49.794;9.722;2023-08-06T15:10:53;16.20;99.90
3996;DHT22;2012;49.794;9.722;2023-08-06T15:13:20;16.30;99.90
3996;DHT22;2012;49.794;9.722;2023-08-06T15:15:49;16.40;99.90
3996;DHT22;2012;49.794;9.722;2023-08-06T15:18:16;16.30;99.90
3996;DHT22;2012;49.794;9.722;2023-08-06T15:20:43;16.30;99.90
3996;DHT22;2012;49.794;9.722;2023-08-06T15:23:10;16.30;99.90
3996;DHT22;2012;49.794;9.722;2023-08-06T15:25:37;16.30;99.90
3996;DHT22;2012;49.794;9.722;2023-08-06T15:28:04;16.30;99.90
3996;DHT22;2012;49.794;9.722;2023-08-06T15:30:32;16.40;99.90
3996;DHT22;2012;49.794;9.722;2023-08-06T15:32:59;16.30;99.90
3996;DHT22;2012;49.794;9.722;2023-08-06T15:35:26;16.30;99.90
3996;DHT22;2012;49.794;9.722;2023-08-06T15:37:53;16.20;99.90
3996;DHT22;2012;49.794;9.722;2023-08-06T15:40:20;16.20;99.90
3996;DHT22;2012;49.794;9.722;2023-08-06T15:42:48;16.30;99.90
3996;DHT22;2012;49.794;9.722;2023-08-06T15:45:15;16.30;99.90
3996;DHT22;2012;49.794;9.722;2023-08-06T15:47:42;16.20;99.90
3996;DHT22;2012;49.794;9.722;2023-08-06T15:50:09;16.20;99.90
3996;DHT22;2012;49.794;9.722;2023-08-06T15:52:36;16.20;99.90
3996;DHT22;2012;49.794;9.722;2023-08-06T15:55:03;16.20;99.90
3996;DHT22;2012;49.794;9.722;2023-08-06T15:57:33;16.20;99.90
3996;DHT22;2012;49.794;9.722;2023-08-06T16:00:00;16.30;99.90
3996;DHT22;2012;49.794;9.722;2023-08-06T16:02:37;16.20;99.90
3996;DHT22;2012;49.794;9.722;2023-08-06T16:05:04;16.20;99.90
3996;DHT22;2012;49.794;9.722;2023-08-06T16:07:32;16.20;99.90
3996;DHT22;2012;49.794;9.722;2023-08-06T16:09:59;16.20;99.90
3996;DHT22;2012;49.794;9.722;2023-08-06T16:12:26;16.30;99.90
3996;DHT22;2012;49.794;9.722;2023-08-06T16:14:53;16.30;99.90
3996;DHT22;2012;49.794;9.722;2023-08-06T16:17:20;16.20;99.90
3996;DHT22;2012;49.794;9.722;2023-08-06T16:19:50;16.20;99.90
3996;DHT22;2012;49.794;9.722;2023-08-06T16:22:18;16.20;99.90